Time;durP1;ratioP1;P1;durP2;ratioP2;P2;SDS_P1;SDS_P2;PMS_P1;PMS_P2;Temp;Humidity;BMP_temperature;BMP_pressure;BME280_temperature;BME280_humidity;BME280_pressure;Samples;Min_cycle;Max_cycle;Signal;HPM_P1;HPM_P2
2023/03/08 00:01:36;;;;;;;9.83;8.90;;;;;;;;;;5129471;27;20449;-76
2023/03/08 00:04:03;;;;;;;11.10;7.50;;;;;;;;;;5129406;27;20489;-76
2023/03/08 00:06:30;;;;;;;12.60;9.07;;;;;;;;;;5130822;27;20442;-76
2023/03/08 00:08:57;;;;;;;8.67;7.77;;;;;;;;;;5134446;27;20453;-75
2023/03/08 00:11:26;;;;;;;13.57;9.17;;;;;;;;;;5133254;27;20449;-75
2023/03/08 00:13:53;;;;;;;9.90;7.90;;;;;;;;;;5132603;27;20972;-76
2023/03/08 00:16:20;;;;;;;11.10;9.20;;;;;;;;;;5128576;27;20470;-75
2023/03/08 00:18:48;;;;;;;11.97;8.50;;;;;;;;;;5112486;28;20463;-77
2023/03/08 00:21:16;;;;;;;12.67;9.00;;;;;;;;;;5112739;28;20446;-76
2023/03/08 00:23:43;;;;;;;9.67;8.67;;;;;;;;;;5111845;28;20485;-77
2023/03/08 00:26:11;;;;;;;12.13;8.50;;;;;;;;;;5113423;28;20439;-76
2023/03/08 00:28:39;;;;;;;10.43;9.40;;;;;;;;;;5112731;28;20438;-76
2023/03/08 00:31:07;;;;;;;9.90;8.57;;;;;;;;;;5112133;28;20439;-76
2023/03/08 00:33:34;;;;;;;9.03;7.80;;;;;;;;;;5111943;28;20989;-76
2023/03/08 00:36:02;;;;;;;9.40;8.10;;;;;;;;;;5112372;28;20435;-77
2023/03/08 00:38:29;;;;;;;10.60;8.97;;;;;;;;;;5125623;27;20445;-76
2023/03/08 00:40:56;;;;;;;11.77;8.57;;;;;;;;;;5132848;27;20436;-75
2023/03/08 00:43:23;;;;;;;10.07;7.67;;;;;;;;;;5132557;27;20472;-76
2023/03/08 00:45:52;;;;;;;10.43;8.07;;;;;;;;;;5132225;27;20453;-76
2023/03/08 00:48:19;;;;;;;11.20;8.27;;;;;;;;;;5132360;27;20442;-77
2023/03/08 00:50:46;;;;;;;10.80;8.30;;;;;;;;;;5132433;27;20434;-76
2023/03/08 00:53:13;;;;;;;10.50;9.00;;;;;;;;;;5132508;27;21135;-75
2023/03/08 00:55:40;;;;;;;12.33;9.57;;;;;;;;;;5132750;27;20952;-76
2023/03/08 00:58:07;;;;;;;13.27;9.97;;;;;;;;;;5133052;27;20461;-76
2023/03/08 01:00:34;;;;;;;10.30;8.90;;;;;;;;;;5132808;27;20466;-75
2023/03/08 01:03:03;;;;;;;9.90;8.90;;;;;;;;;;5147657;27;20453;-77
2023/03/08 01:05:30;;;;;;;10.60;8.97;;;;;;;;;;5149094;27;20481;-76
2023/03/08 01:07:57;;;;;;;12.63;9.33;;;;;;;;;;5159090;27;20444;-75
2023/03/08 01:10:24;;;;;;;9.80;8.10;;;;;;;;;;5158585;27;20434;-75
2023/03/08 01:12:51;;;;;;;10.20;9.10;;;;;;;;;;5155658;27;20454;-75
2023/03/08 01:15:18;;;;;;;11.87;9.23;;;;;;;;;;5150146;27;20434;-77
2023/03/08 01:17:45;;;;;;;11.93;8.70;;;;;;;;;;5135932;27;20446;-76
2023/03/08 01:20:14;;;;;;;14.20;10.10;;;;;;;;;;5142565;27;20438;-75
2023/03/08 01:22:41;;;;;;;12.20;9.17;;;;;;;;;;5142063;27;20462;-77
2023/03/08 01:25:08;;;;;;;12.93;9.63;;;;;;;;;;5138744;27;21012;-76
2023/03/08 01:27:35;;;;;;;12.53;10.67;;;;;;;;;;5142829;27;20445;-75
2023/03/08 01:30:02;;;;;;;12.83;10.63;;;;;;;;;;5132995;27;20457;-75
2023/03/08 01:32:29;;;;;;;12.43;10.30;;;;;;;;;;5131664;27;20446;-76
2023/03/08 01:35:02;;;;;;;10.57;9.43;;;;;;;;;;5131915;27;20449;-76
2023/03/08 01:37:30;;;;;;;13.20;9.83;;;;;;;;;;5131951;27;20532;-76
2023/03/08 01:39:57;;;;;;;13.90;10.50;;;;;;;;;;5131577;27;20667;-76
2023/03/08 01:42:24;;;;;;;13.10;9.93;;;;;;;;;;5131689;27;20453;-76
2023/03/08 01:44:52;;;;;;;13.23;10.70;;;;;;;;;;5131199;27;20502;-76
2023/03/08 01:47:20;;;;;;;13.57;10.43;;;;;;;;;;5131582;27;20956;-75
2023/03/08 01:49:47;;;;;;;13.50;11.23;;;;;;;;;;5131919;27;20457;-75
2023/03/08 01:52:16;;;;;;;12.40;9.73;;;;;;;;;;5131777;27;20902;-75
2023/03/08 01:54:46;;;;;;;12.77;10.37;;;;;;;;;;5131636;27;20450;-77
2023/03/08 01:57:17;;;;;;;11.87;10.57;;;;;;;;;;5131884;27;20437;-75
2023/03/08 01:59:45;;;;;;;11.43;10.20;;;;;;;;;;5131579;27;20456;-76
2023/03/08 02:02:12;;;;;;;13.40;9.90;;;;;;;;;;5131226;27;21035;-77
2023/03/08 02:04:39;;;;;;;12.70;9.77;;;;;;;;;;5130923;27;20469;-77
2023/03/08 02:07:07;;;;;;;16.83;10.80;;;;;;;;;;5131271;27;20857;-75
2023/03/08 02:09:34;;;;;;;14.93;11.13;;;;;;;;;;5131785;27;20933;-75
2023/03/08 02:12:04;;;;;;;13.03;10.17;;;;;;;;;;5131379;27;20442;-75
2023/03/08 02:14:31;;;;;;;11.60;10.30;;;;;;;;;;5131026;27;20820;-75
2023/03/08 02:16:58;;;;;;;11.30;10.00;;;;;;;;;;5131935;27;20442;-77
2023/03/08 02:19:27;;;;;;;12.80;10.20;;;;;;;;;;5131023;27;20438;-77
2023/03/08 02:21:54;;;;;;;13.47;10.67;;;;;;;;;;5131029;27;20438;-75
2023/03/08 02:24:23;;;;;;;15.77;11.17;;;;;;;;;;5130520;27;20484;-75
2023/03/08 02:26:51;;;;;;;11.63;9.80;;;;;;;;;;5130914;27;20462;-76
2023/03/08 02:29:18;;;;;;;13.97;11.17;;;;;;;;;;5130840;27;20430;-76
2023/03/08 02:31:45;;;;;;;14.30;10.83;;;;;;;;;;5130061;27;20441;-76
2023/03/08 02:34:12;;;;;;;12.47;9.87;;;;;;;;;;5130305;27;20458;-77
2023/03/08 02:36:39;;;;;;;11.87;9.50;;;;;;;;;;5130426;27;20446;-76
2023/03/08 02:39:06;;;;;;;12.47;10.50;;;;;;;;;;5131044;27;20437;-76
2023/03/08 02:41:34;;;;;;;12.50;10.30;;;;;;;;;;5130471;27;20812;-77
2023/03/08 02:44:01;;;;;;;12.47;10.90;;;;;;;;;;5129956;27;20465;-77
2023/03/08 02:46:29;;;;;;;13.37;10.30;;;;;;;;;;5130507;27;20481;-76
2023/03/08 02:48:56;;;;;;;14.70;11.00;;;;;;;;;;5134021;27;20461;-77
2023/03/08 02:51:23;;;;;;;13.23;10.20;;;;;;;;;;5132581;27;20441;-77
2023/03/08 02:53:50;;;;;;;11.97;10.57;;;;;;;;;;5130189;27;20476;-76
2023/03/08 02:56:17;;;;;;;12.70;10.37;;;;;;;;;;5130051;27;20434;-76
2023/03/08 02:58:45;;;;;;;12.47;9.60;;;;;;;;;;5130256;27;20498;-76
2023/03/08 03:01:12;;;;;;;12.27;9.93;;;;;;;;;;5129795;27;20468;-75
2023/03/08 03:03:39;;;;;;;14.80;10.57;;;;;;;;;;5129808;27;20493;-76
2023/03/08 03:06:13;;;;;;;14.13;11.20;;;;;;;;;;5130352;27;20524;-77
2023/03/08 03:08:40;;;;;;;12.37;9.77;;;;;;;;;;5130487;27;20426;-76
2023/03/08 03:11:11;;;;;;;11.83;10.40;;;;;;;;;;5130091;27;20450;-76
2023/03/08 03:13:38;;;;;;;16.67;10.07;;;;;;;;;;5129642;27;20454;-76
2023/03/08 03:16:08;;;;;;;12.97;10.43;;;;;;;;;;5128441;27;20787;-76
2023/03/08 03:18:35;;;;;;;13.57;10.30;;;;;;;;;;5109395;28;20445;-78
2023/03/08 03:21:03;;;;;;;12.80;10.50;;;;;;;;;;5109195;28;20450;-76
2023/03/08 03:23:30;;;;;;;12.27;9.47;;;;;;;;;;5109156;28;20489;-76
2023/03/08 03:25:57;;;;;;;11.73;9.90;;;;;;;;;;5109294;28;20982;-76
2023/03/08 03:28:24;;;;;;;16.20;9.60;;;;;;;;;;5109330;28;20922;-75
2023/03/08 03:30:51;;;;;;;12.60;9.50;;;;;;;;;;5109827;28;20435;-75
2023/03/08 03:33:19;;;;;;;13.00;9.90;;;;;;;;;;5109361;28;20473;-77
2023/03/08 03:35:46;;;;;;;13.63;10.27;;;;;;;;;;5109511;28;20438;-75
2023/03/08 03:38:13;;;;;;;11.30;9.47;;;;;;;;;;5109016;28;20935;-77
2023/03/08 03:40:41;;;;;;;11.60;9.20;;;;;;;;;;5109196;28;20446;-77
2023/03/08 03:43:08;;;;;;;12.67;10.53;;;;;;;;;;5110723;28;20454;-75
2023/03/08 03:45:35;;;;;;;11.23;9.70;;;;;;;;;;5113301;28;20826;-76
2023/03/08 03:48:02;;;;;;;12.03;9.00;;;;;;;;;;5113366;28;20439;-75
2023/03/08 03:50:30;;;;;;;13.03;9.83;;;;;;;;;;5113423;28;20438;-76
2023/03/08 03:52:57;;;;;;;12.60;9.53;;;;;;;;;;5113151;28;20782;-76
2023/03/08 03:55:24;;;;;;;13.27;9.43;;;;;;;;;;5112921;28;20887;-77
2023/03/08 03:57:51;;;;;;;11.70;10.47;;;;;;;;;;5113550;28;20450;-76
2023/03/08 04:00:18;;;;;;;14.83;10.23;;;;;;;;;;5113143;28;20454;-76
2023/03/08 04:02:45;;;;;;;13.57;10.73;;;;;;;;;;5112297;28;20977;-75
2023/03/08 04:05:12;;;;;;;12.13;9.67;;;;;;;;;;5113124;28;20548;-76
2023/03/08 04:07:41;;;;;;;11.57;9.70;;;;;;;;;;5112907;27;20439;-77
2023/03/08 04:10:08;;;;;;;14.17;10.80;;;;;;;;;;5112680;28;20434;-76
2023/03/08 04:12:35;;;;;;;13.70;10.87;;;;;;;;;;5112622;28;20478;-76
2023/03/08 04:15:02;;;;;;;13.50;9.50;;;;;;;;;;5112355;28;20443;-75
2023/03/08 04:17:29;;;;;;;10.90;9.63;;;;;;;;;;5126162;27;20464;-75
2023/03/08 04:19:56;;;;;;;10.77;9.67;;;;;;;;;;5133583;27;20802;-77
2023/03/08 04:22:23;;;;;;;12.93;10.60;;;;;;;;;;5133259;27;20442;-76
2023/03/08 04:24:51;;;;;;;11.60;9.17;;;;;;;;;;5133783;27;20442;-75
2023/03/08 04:27:19;;;;;;;14.63;9.87;;;;;;;;;;5135094;27;20449;-77
2023/03/08 04:29:46;;;;;;;14.93;10.10;;;;;;;;;;5135616;27;20446;-76
2023/03/08 04:32:13;;;;;;;13.30;9.17;;;;;;;;;;5135156;27;20926;-76
2023/03/08 04:34:41;;;;;;;10.80;9.07;;;;;;;;;;5135273;27;20490;-75
2023/03/08 04:37:09;;;;;;;11.33;9.13;;;;;;;;;;5136406;27;20480;-76
2023/03/08 04:39:36;;;;;;;11.53;8.73;;;;;;;;;;5137828;27;20461;-76
2023/03/08 04:42:04;;;;;;;11.60;9.30;;;;;;;;;;5136174;27;20442;-75
2023/03/08 04:44:31;;;;;;;11.17;9.60;;;;;;;;;;5141155;27;20464;-75
2023/03/08 04:46:58;;;;;;;15.03;10.10;;;;;;;;;;5150435;27;20485;-75
2023/03/08 04:49:26;;;;;;;15.10;10.00;;;;;;;;;;5134412;27;20442;-76
2023/03/08 04:51:53;;;;;;;12.23;9.53;;;;;;;;;;5133708;27;20453;-75
2023/03/08 04:54:20;;;;;;;12.40;10.10;;;;;;;;;;5133414;27;20462;-75
2023/03/08 04:56:47;;;;;;;10.97;9.80;;;;;;;;;;5133275;27;20495;-75
2023/03/08 04:59:15;;;;;;;12.57;10.40;;;;;;;;;;5144103;27;20418;-75
2023/03/08 05:01:42;;;;;;;11.93;9.50;;;;;;;;;;5159820;27;20417;-75
2023/03/08 05:04:10;;;;;;;12.93;9.73;;;;;;;;;;5159558;27;20442;-75
2023/03/08 05:06:37;;;;;;;11.13;9.10;;;;;;;;;;5159277;27;20478;-75
2023/03/08 05:09:04;;;;;;;11.60;9.83;;;;;;;;;;5159778;27;20430;-76
2023/03/08 05:11:32;;;;;;;15.10;10.30;;;;;;;;;;5159690;27;20433;-75
2023/03/08 05:14:00;;;;;;;13.40;10.07;;;;;;;;;;5154276;27;20457;-75
2023/03/08 05:16:28;;;;;;;15.77;10.10;;;;;;;;;;5149662;27;20445;-75
2023/03/08 05:18:55;;;;;;;14.33;10.20;;;;;;;;;;5150637;27;20909;-75
2023/03/08 05:21:23;;;;;;;14.43;11.53;;;;;;;;;;5155312;27;20479;-77
2023/03/08 05:23:50;;;;;;;15.60;11.67;;;;;;;;;;5157461;27;20446;-75
2023/03/08 05:26:18;;;;;;;16.30;10.47;;;;;;;;;;5159191;27;20474;-75
2023/03/08 05:28:45;;;;;;;12.73;10.30;;;;;;;;;;5159502;27;20426;-75
2023/03/08 05:31:13;;;;;;;15.03;10.83;;;;;;;;;;5158954;27;20418;-76
2023/03/08 05:33:42;;;;;;;10.53;9.40;;;;;;;;;;5159279;27;20475;-74
2023/03/08 05:36:09;;;;;;;15.03;10.30;;;;;;;;;;5159782;27;20459;-76
2023/03/08 05:38:36;;;;;;;13.73;11.00;;;;;;;;;;5159039;27;20426;-75
2023/03/08 05:41:04;;;;;;;13.00;11.53;;;;;;;;;;5159660;27;20414;-76
2023/03/08 05:43:31;;;;;;;17.13;13.03;;;;;;;;;;5159520;27;20500;-76
2023/03/08 05:45:59;;;;;;;12.67;10.53;;;;;;;;;;5159269;27;20458;-76
2023/03/08 05:48:26;;;;;;;16.83;11.60;;;;;;;;;;5159368;27;20440;-75
2023/03/08 05:50:55;;;;;;;19.30;11.50;;;;;;;;;;5159133;27;20460;-77
2023/03/08 05:53:22;;;;;;;13.10;10.57;;;;;;;;;;5155847;27;20466;-75
2023/03/08 05:55:49;;;;;;;15.90;11.77;;;;;;;;;;5155255;27;20446;-75
2023/03/08 05:58:16;;;;;;;13.73;10.47;;;;;;;;;;5153469;27;20423;-77
2023/03/08 06:00:43;;;;;;;13.87;10.57;;;;;;;;;;5157877;27;20454;-77
2023/03/08 06:03:10;;;;;;;16.20;11.47;;;;;;;;;;5141924;27;20450;-75
2023/03/08 06:05:38;;;;;;;15.80;11.67;;;;;;;;;;5132613;27;20543;-76
2023/03/08 06:08:06;;;;;;;15.53;10.83;;;;;;;;;;5134432;27;20446;-76
2023/03/08 06:10:33;;;;;;;13.23;11.00;;;;;;;;;;5132872;27;20437;-76
2023/03/08 06:13:02;;;;;;;15.90;11.97;;;;;;;;;;5111282;28;20447;-77
2023/03/08 06:15:29;;;;;;;14.30;11.20;;;;;;;;;;5111132;28;20465;-75
2023/03/08 06:17:56;;;;;;;14.80;11.00;;;;;;;;;;5111705;28;20439;-75
2023/03/08 06:20:23;;;;;;;17.90;14.40;;;;;;;;;;5110595;28;20439;-75
2023/03/08 06:22:50;;;;;;;14.20;12.20;;;;;;;;;;5110572;28;20463;-77
2023/03/08 06:25:18;;;;;;;17.80;12.50;;;;;;;;;;5110420;28;20546;-77
2023/03/08 06:27:45;;;;;;;15.80;12.73;;;;;;;;;;5110837;28;20450;-77
2023/03/08 06:30:13;;;;;;;19.80;13.30;;;;;;;;;;5110411;28;20446;-76
2023/03/08 06:32:41;;;;;;;15.33;12.70;;;;;;;;;;5109923;28;20933;-76
2023/03/08 06:35:09;;;;;;;15.27;12.60;;;;;;;;;;5110314;28;20455;-78
2023/03/08 06:37:36;;;;;;;19.30;13.60;;;;;;;;;;5110449;28;20499;-77
2023/03/08 06:40:04;;;;;;;21.50;16.00;;;;;;;;;;5111743;28;20453;-76
2023/03/08 06:42:33;;;;;;;20.17;15.30;;;;;;;;;;5112296;28;20443;-76
2023/03/08 06:45:00;;;;;;;17.13;13.77;;;;;;;;;;5110747;28;20949;-76
2023/03/08 06:47:29;;;;;;;18.63;13.73;;;;;;;;;;5116294;28;20475;-75
2023/03/08 06:49:56;;;;;;;17.37;14.07;;;;;;;;;;5117523;28;20439;-75
2023/03/08 06:52:23;;;;;;;18.20;14.63;;;;;;;;;;5112492;28;20483;-75
2023/03/08 06:54:50;;;;;;;18.60;14.73;;;;;;;;;;5113256;28;20450;-77
2023/03/08 06:57:17;;;;;;;18.00;13.60;;;;;;;;;;5114191;28;20435;-76
2023/03/08 06:59:46;;;;;;;16.70;13.70;;;;;;;;;;5111720;28;20462;-76
2023/03/08 07:02:13;;;;;;;16.27;13.40;;;;;;;;;;5112764;28;20521;-76
2023/03/08 07:04:40;;;;;;;18.60;13.97;;;;;;;;;;5110749;28;20462;-76
2023/03/08 07:07:16;;;;;;;18.13;14.60;;;;;;;;;;5110225;28;20478;-75
2023/03/08 07:09:44;;;;;;;17.77;13.37;;;;;;;;;;5110062;27;20455;-76
2023/03/08 07:12:12;;;;;;;18.73;13.40;;;;;;;;;;5110846;28;20454;-75
2023/03/08 07:14:41;;;;;;;17.40;14.17;;;;;;;;;;5123789;27;20464;-77
2023/03/08 07:17:10;;;;;;;18.93;12.47;;;;;;;;;;5132316;27;20437;-76
2023/03/08 07:19:37;;;;;;;16.00;12.90;;;;;;;;;;5131297;27;20449;-76
2023/03/08 07:22:04;;;;;;;18.03;14.10;;;;;;;;;;5135031;27;20448;-77
2023/03/08 07:24:31;;;;;;;17.90;13.90;;;;;;;;;;5134795;27;20496;-76
2023/03/08 07:26:59;;;;;;;16.50;13.20;;;;;;;;;;5134665;27;20992;-77
2023/03/08 07:29:26;;;;;;;19.17;14.13;;;;;;;;;;5134661;27;20441;-76
2023/03/08 07:31:53;;;;;;;19.20;13.93;;;;;;;;;;5134284;27;20433;-76
2023/03/08 07:34:21;;;;;;;16.27;12.70;;;;;;;;;;5134636;27;20466;-76
2023/03/08 07:36:48;;;;;;;18.60;14.30;;;;;;;;;;5135735;27;20448;-76
2023/03/08 07:39:16;;;;;;;16.40;13.80;;;;;;;;;;5135560;27;20465;-76
2023/03/08 07:41:43;;;;;;;16.50;12.80;;;;;;;;;;5134551;27;20442;-77
2023/03/08 07:44:10;;;;;;;16.63;13.10;;;;;;;;;;5133890;27;20457;-75
2023/03/08 07:46:37;;;;;;;15.27;12.67;;;;;;;;;;5134101;27;21046;-77
2023/03/08 07:49:09;;;;;;;18.50;14.10;;;;;;;;;;5134316;27;20446;-76
2023/03/08 07:51:38;;;;;;;19.10;14.90;;;;;;;;;;5135509;27;20433;-76
2023/03/08 07:54:05;;;;;;;17.03;13.10;;;;;;;;;;5135036;27;20477;-76
2023/03/08 07:56:32;;;;;;;17.40;13.40;;;;;;;;;;5137117;27;20433;-76
2023/03/08 07:58:59;;;;;;;16.10;13.40;;;;;;;;;;5135807;27;20437;-77
2023/03/08 08:01:26;;;;;;;17.83;13.23;;;;;;;;;;5134907;27;20442;-77
2023/03/08 08:03:53;;;;;;;18.63;13.30;;;;;;;;;;5134589;27;20462;-75
2023/03/08 08:06:20;;;;;;;15.43;12.50;;;;;;;;;;5134453;27;20474;-77
2023/03/08 08:08:48;;;;;;;20.70;13.43;;;;;;;;;;5134917;27;20445;-77
2023/03/08 08:11:16;;;;;;;14.93;13.20;;;;;;;;;;5134252;27;20835;-78
2023/03/08 08:13:45;;;;;;;18.73;12.87;;;;;;;;;;5133810;27;20472;-77
2023/03/08 08:16:12;;;;;;;15.07;12.40;;;;;;;;;;5135329;27;20452;-77
2023/03/08 08:18:39;;;;;;;16.13;12.00;;;;;;;;;;5134488;27;20553;-77
2023/03/08 08:21:07;;;;;;;16.60;13.20;;;;;;;;;;5133826;27;20445;-78
2023/03/08 08:23:34;;;;;;;15.50;13.13;;;;;;;;;;5133207;27;20469;-77
2023/03/08 08:26:05;;;;;;;16.03;11.93;;;;;;;;;;5133405;27;20449;-76
2023/03/08 08:28:32;;;;;;;13.47;12.07;;;;;;;;;;5132786;27;20449;-77
2023/03/08 08:30:59;;;;;;;12.83;11.43;;;;;;;;;;5133304;27;20449;-79
2023/03/08 08:33:28;;;;;;;16.80;11.87;;;;;;;;;;5132811;27;20469;-77
2023/03/08 08:35:55;;;;;;;13.83;10.97;;;;;;;;;;5133315;27;20438;-77
2023/03/08 08:38:22;;;;;;;16.60;12.37;;;;;;;;;;5133569;27;20441;-77
2023/03/08 08:40:49;;;;;;;13.27;11.30;;;;;;;;;;5132967;27;20445;-76
2023/03/08 08:43:17;;;;;;;16.57;12.73;;;;;;;;;;5133036;27;20473;-75
2023/03/08 08:45:45;;;;;;;14.90;12.17;;;;;;;;;;5133549;27;20468;-76
2023/03/08 08:48:12;;;;;;;15.10;12.20;;;;;;;;;;5132827;27;20573;-76
2023/03/08 08:50:39;;;;;;;17.40;12.63;;;;;;;;;;5137765;27;20453;-76
2023/03/08 08:53:06;;;;;;;18.23;12.27;;;;;;;;;;5133002;27;20454;-77
2023/03/08 08:55:33;;;;;;;15.83;12.60;;;;;;;;;;5152430;27;20449;-77
2023/03/08 08:58:00;;;;;;;16.53;12.77;;;;;;;;;;5146708;27;20445;-76
2023/03/08 09:00:29;;;;;;;15.40;12.30;;;;;;;;;;5132260;27;20864;-77
2023/03/08 09:02:56;;;;;;;15.13;12.40;;;;;;;;;;5132201;27;20472;-76
2023/03/08 09:05:23;;;;;;;15.70;11.77;;;;;;;;;;5132827;27;20442;-76
2023/03/08 09:07:50;;;;;;;13.17;11.77;;;;;;;;;;5133333;27;20470;-76
2023/03/08 09:10:17;;;;;;;14.17;12.67;;;;;;;;;;5132664;27;20445;-75
2023/03/08 09:12:45;;;;;;;13.17;11.20;;;;;;;;;;5132667;27;20479;-76
2023/03/08 09:15:12;;;;;;;15.20;12.80;;;;;;;;;;5132829;27;20446;-77
2023/03/08 09:17:40;;;;;;;18.33;12.63;;;;;;;;;;5133083;27;20952;-77
2023/03/08 09:20:08;;;;;;;17.03;12.73;;;;;;;;;;5132534;27;20444;-76
2023/03/08 09:22:35;;;;;;;16.83;13.60;;;;;;;;;;5132395;27;20499;-76
2023/03/08 09:25:02;;;;;;;26.40;12.90;;;;;;;;;;5132535;27;20453;-76
2023/03/08 09:27:30;;;;;;;15.70;13.07;;;;;;;;;;5132158;27;20504;-78
2023/03/08 09:29:57;;;;;;;15.90;12.60;;;;;;;;;;5132189;27;20989;-76
2023/03/08 09:32:24;;;;;;;14.00;12.50;;;;;;;;;;5131738;27;20975;-78
2023/03/08 09:34:53;;;;;;;19.37;14.00;;;;;;;;;;5132007;27;20453;-76
2023/03/08 09:37:20;;;;;;;17.43;13.77;;;;;;;;;;5132644;27;20442;-76
2023/03/08 09:39:51;;;;;;;14.80;13.00;;;;;;;;;;5131845;27;20441;-76
2023/03/08 09:42:20;;;;;;;20.23;14.80;;;;;;;;;;5131852;27;20441;-77
2023/03/08 09:45:17;;;;;;;16.10;13.33;;;;;;;;;;5131705;27;20458;-77
2023/03/08 09:47:46;;;;;;;17.60;13.27;;;;;;;;;;5067989;28;20901;-77
2023/03/08 09:50:19;;;;;;;18.50;14.60;;;;;;;;;;5118126;27;20985;-77
2023/03/08 09:52:50;;;;;;;20.20;15.23;;;;;;;;;;5132443;27;20465;-77
2023/03/08 09:55:24;;;;;;;17.17;14.00;;;;;;;;;;5133145;27;20446;-77
2023/03/08 09:57:54;;;;;;;17.70;14.10;;;;;;;;;;5132865;27;20430;-78
2023/03/08 10:00:22;;;;;;;19.13;14.93;;;;;;;;;;5131857;27;20454;-78
2023/03/08 10:02:54;;;;;;;17.20;14.80;;;;;;;;;;5131355;27;20506;-77
2023/03/08 10:05:23;;;;;;;20.50;14.97;;;;;;;;;;5132522;27;20450;-77
2023/03/08 10:07:54;;;;;;;20.70;15.57;;;;;;;;;;5131633;27;20477;-77
2023/03/08 10:10:26;;;;;;;16.13;12.80;;;;;;;;;;5131467;27;20547;-76
2023/03/08 10:12:59;;;;;;;15.53;13.47;;;;;;;;;;5131966;27;20454;-76
2023/03/08 10:15:28;;;;;;;16.50;12.10;;;;;;;;;;5131869;27;20474;-77
2023/03/08 10:17:58;;;;;;;17.10;13.10;;;;;;;;;;5131246;27;20445;-76
2023/03/08 10:20:28;;;;;;;18.23;12.80;;;;;;;;;;5130916;27;20445;-78
2023/03/08 10:22:58;;;;;;;14.93;12.50;;;;;;;;;;5131037;27;20843;-77
2023/03/08 10:25:27;;;;;;;13.90;12.07;;;;;;;;;;5131788;27;20430;-76
2023/03/08 10:27:56;;;;;;;10.53;9.40;;;;;;;;;;5133445;27;20473;-77
2023/03/08 10:30:24;;;;;;;11.47;8.80;;;;;;;;;;5133496;27;20474;-77
2023/03/08 10:32:54;;;;;;;9.90;8.60;;;;;;;;;;5131323;27;20465;-76
2023/03/08 10:35:32;;;;;;;8.40;7.27;;;;;;;;;;5131022;27;20441;-76
2023/03/08 10:37:59;;;;;;;7.33;6.20;;;;;;;;;;5132358;27;20505;-76
2023/03/08 10:40:26;;;;;;;7.83;6.20;;;;;;;;;;5133587;27;20921;-77
2023/03/08 10:42:56;;;;;;;7.60;6.70;;;;;;;;;;5133604;27;20458;-76
2023/03/08 10:45:25;;;;;;;7.20;5.67;;;;;;;;;;5136246;27;20453;-76
2023/03/08 10:47:57;;;;;;;6.60;6.00;;;;;;;;;;5135182;27;20470;-76
2023/03/08 10:50:25;;;;;;;7.10;6.40;;;;;;;;;;5134355;27;20452;-76
2023/03/08 10:52:53;;;;;;;8.13;5.80;;;;;;;;;;5131108;27;20466;-77
2023/03/08 10:55:21;;;;;;;6.80;5.30;;;;;;;;;;5131894;27;20466;-77
2023/03/08 10:57:50;;;;;;;6.40;4.97;;;;;;;;;;5134468;27;20438;-77
2023/03/08 11:00:32;;;;;;;5.87;5.27;;;;;;;;;;5138767;27;20450;-77
2023/03/08 11:03:14;;;;;;;5.20;4.70;;;;;;;;;;5133312;27;20457;-77
2023/03/08 11:05:51;;;;;;;6.00;4.80;;;;;;;;;;5133913;27;20505;-78
2023/03/08 11:08:20;;;;;;;4.27;3.70;;;;;;;;;;5153544;27;20452;-77
2023/03/08 11:10:47;;;;;;;4.60;3.40;;;;;;;;;;5153584;27;21172;-77
2023/03/08 11:13:21;;;;;;;4.27;2.97;;;;;;;;;;5151762;27;20456;-78
2023/03/08 11:15:50;;;;;;;2.90;2.60;;;;;;;;;;5151924;27;20501;-77
2023/03/08 11:18:25;;;;;;;2.43;2.20;;;;;;;;;;5151146;27;20433;-76
2023/03/08 11:20:56;;;;;;;1.60;1.50;;;;;;;;;;5151711;27;20551;-77
2023/03/08 11:23:27;;;;;;;2.00;1.90;;;;;;;;;;5151363;27;20449;-78
2023/03/08 11:25:57;;;;;;;2.10;1.83;;;;;;;;;;5151663;27;20444;-78
2023/03/08 11:28:37;;;;;;;2.23;2.03;;;;;;;;;;5151570;27;20874;-79
2023/03/08 11:31:13;;;;;;;1.97;1.80;;;;;;;;;;5152089;27;20436;-76
2023/03/08 11:33:47;;;;;;;2.30;2.10;;;;;;;;;;5151106;27;20508;-77
2023/03/08 11:36:17;;;;;;;1.73;1.63;;;;;;;;;;5152326;27;20440;-78
2023/03/08 11:38:48;;;;;;;1.80;1.70;;;;;;;;;;5151342;27;20448;-77
2023/03/08 11:41:19;;;;;;;1.70;1.60;;;;;;;;;;5151636;27;20433;-77
2023/03/08 11:43:54;;;;;;;1.23;1.23;;;;;;;;;;5150860;27;20457;-76
2023/03/08 11:46:24;;;;;;;1.70;1.50;;;;;;;;;;5151570;27;20408;-77
2023/03/08 11:49:10;;;;;;;1.50;1.40;;;;;;;;;;5151815;27;20476;-77
2023/03/08 11:51:40;;;;;;;1.77;1.67;;;;;;;;;;5152189;27;20445;-77
2023/03/08 11:54:13;;;;;;;2.50;1.50;;;;;;;;;;5152443;27;20461;-78
2023/03/08 11:56:46;;;;;;;1.60;1.50;;;;;;;;;;5151358;27;20509;-77
2023/03/08 11:59:17;;;;;;;1.33;1.33;;;;;;;;;;5151303;27;20840;-77
2023/03/08 12:01:48;;;;;;;1.37;1.27;;;;;;;;;;5151339;27;20525;-78
2023/03/08 12:04:17;;;;;;;1.10;1.10;;;;;;;;;;5153166;27;20975;-77
2023/03/08 12:06:45;;;;;;;3.27;1.30;;;;;;;;;;5155981;27;20436;-77
2023/03/08 12:09:18;;;;;;;1.30;1.30;;;;;;;;;;5113587;27;20474;-77
2023/03/08 12:11:48;;;;;;;1.80;1.70;;;;;;;;;;5119876;27;20426;-77
2023/03/08 12:14:19;;;;;;;1.80;1.70;;;;;;;;;;5134382;27;20458;-76
2023/03/08 12:16:49;;;;;;;2.53;1.53;;;;;;;;;;5134129;27;20441;-77
2023/03/08 12:19:21;;;;;;;1.30;1.20;;;;;;;;;;5135057;27;20418;-75
2023/03/08 12:21:50;;;;;;;1.80;1.40;;;;;;;;;;5134232;27;20437;-77
2023/03/08 12:24:28;;;;;;;1.77;1.67;;;;;;;;;;5134090;27;21000;-76
2023/03/08 12:26:58;;;;;;;1.33;1.23;;;;;;;;;;5133867;27;20445;-77
2023/03/08 12:29:27;;;;;;;2.17;1.83;;;;;;;;;;5134550;27;20481;-77
2023/03/08 12:31:54;;;;;;;1.60;1.40;;;;;;;;;;5141014;27;21113;-78
2023/03/08 12:34:28;;;;;;;1.93;1.40;;;;;;;;;;5134679;27;20808;-77
2023/03/08 12:36:55;;;;;;;1.87;1.37;;;;;;;;;;5135711;27;20422;-79
2023/03/08 12:39:31;;;;;;;1.63;1.53;;;;;;;;;;5137958;27;20764;-78
2023/03/08 12:41:59;;;;;;;1.60;1.50;;;;;;;;;;5143009;27;20441;-78
2023/03/08 12:44:27;;;;;;;4.13;1.20;;;;;;;;;;5135671;27;20466;-78
2023/03/08 12:46:56;;;;;;;1.30;1.17;;;;;;;;;;5134946;27;20453;-79
2023/03/08 12:49:27;;;;;;;1.30;1.20;;;;;;;;;;5134563;27;20476;-79
2023/03/08 12:51:58;;;;;;;1.20;1.20;;;;;;;;;;5135038;27;20915;-78
2023/03/08 12:54:28;;;;;;;1.50;1.40;;;;;;;;;;5134633;27;20474;-77
2023/03/08 12:56:57;;;;;;;1.33;1.30;;;;;;;;;;5137481;27;20442;-78
2023/03/08 12:59:29;;;;;;;1.80;1.57;;;;;;;;;;5138215;27;20449;-79
2023/03/08 13:02:01;;;;;;;1.30;1.20;;;;;;;;;;5139165;27;20477;-78
2023/03/08 13:04:29;;;;;;;1.40;1.30;;;;;;;;;;5138435;27;20454;-78
2023/03/08 13:07:04;;;;;;;1.33;1.23;;;;;;;;;;5136825;27;20473;-78
2023/03/08 13:09:33;;;;;;;2.00;1.20;;;;;;;;;;5134663;27;20461;-79
2023/03/08 13:12:17;;;;;;;2.00;1.23;;;;;;;;;;5133706;27;20541;-78
2023/03/08 13:14:45;;;;;;;1.13;1.10;;;;;;;;;;5133674;27;20541;-78
2023/03/08 13:17:30;;;;;;;1.10;1.00;;;;;;;;;;5133424;27;20442;-76
2023/03/08 13:19:58;;;;;;;1.33;1.20;;;;;;;;;;5136428;27;20446;-79
2023/03/08 13:22:26;;;;;;;0.80;0.80;;;;;;;;;;5135782;27;20450;-77
2023/03/08 13:24:57;;;;;;;2.00;1.17;;;;;;;;;;5133814;27;20445;-80
2023/03/08 13:27:30;;;;;;;1.27;1.17;;;;;;;;;;5133235;27;20478;-77
2023/03/08 13:29:59;;;;;;;1.23;1.23;;;;;;;;;;5134193;27;20427;-78
2023/03/08 13:32:26;;;;;;;1.67;1.03;;;;;;;;;;5135643;27;20433;-77
2023/03/08 13:34:59;;;;;;;2.17;1.37;;;;;;;;;;5135418;27;20503;-79
2023/03/08 13:37:27;;;;;;;2.13;1.70;;;;;;;;;;5135579;27;20438;-78
2023/03/08 13:39:55;;;;;;;1.80;1.43;;;;;;;;;;5133754;27;20449;-78
2023/03/08 13:42:23;;;;;;;1.00;1.00;;;;;;;;;;5134282;27;20446;-77
2023/03/08 13:44:52;;;;;;;1.37;1.27;;;;;;;;;;5132987;27;20474;-77
2023/03/08 13:47:22;;;;;;;3.03;1.33;;;;;;;;;;5133184;27;20438;-78
2023/03/08 13:49:50;;;;;;;1.20;1.10;;;;;;;;;;5133340;27;20470;-78
2023/03/08 13:52:18;;;;;;;3.30;1.20;;;;;;;;;;5132128;27;20474;-78
2023/03/08 13:54:46;;;;;;;1.23;1.00;;;;;;;;;;5131787;27;20990;-78
2023/03/08 13:57:19;;;;;;;1.30;1.20;;;;;;;;;;5132552;27;20446;-78
2023/03/08 13:59:48;;;;;;;1.07;1.07;;;;;;;;;;5132929;27;20442;-78
2023/03/08 14:02:20;;;;;;;1.47;1.40;;;;;;;;;;5131244;27;21005;-79
2023/03/08 14:04:47;;;;;;;1.17;1.17;;;;;;;;;;5131894;27;20461;-76
2023/03/08 14:07:20;;;;;;;3.27;1.10;;;;;;;;;;5132044;27;20445;-78
2023/03/08 14:09:47;;;;;;;2.20;1.10;;;;;;;;;;5131845;27;20569;-79
2023/03/08 14:12:16;;;;;;;1.10;1.00;;;;;;;;;;5132148;27;20449;-79
2023/03/08 14:14:44;;;;;;;1.13;1.00;;;;;;;;;;5132437;27;20462;-78
2023/03/08 14:17:18;;;;;;;2.40;0.80;;;;;;;;;;5132820;27;20446;-78
2023/03/08 14:19:46;;;;;;;0.80;0.80;;;;;;;;;;5132655;27;20445;-78
2023/03/08 14:22:14;;;;;;;1.10;1.10;;;;;;;;;;5131959;27;20441;-78
2023/03/08 14:24:42;;;;;;;1.63;1.00;;;;;;;;;;5132045;27;20466;-77
2023/03/08 14:27:28;;;;;;;0.90;0.90;;;;;;;;;;5131674;27;20932;-78
2023/03/08 14:30:02;;;;;;;0.70;0.70;;;;;;;;;;5131592;27;20481;-77
2023/03/08 14:32:30;;;;;;;0.83;0.83;;;;;;;;;;5131664;27;21013;-78
2023/03/08 14:35:06;;;;;;;0.87;0.87;;;;;;;;;;5131335;27;20433;-78
2023/03/08 14:37:33;;;;;;;0.80;0.80;;;;;;;;;;5131802;27;20670;-78